Flight Track Log - Related Links

Times and Time Zones

All times are in EDT time to prevent confusion due to time zone crossing. See the N84NG flight status page for this flight to view local times or setup timezone preferences in your user account.

Time Position Orientation Groundspeed Altitude Reporting Facility
EDT Latitude Longitude Course Direction KTS MPH feet Rate Location/Type
Tue 02:26:18 PM 29.6833 -95.2858 North 188 216 1,700  Level Houston Center
Tue 02:27:13 PM 29.7400 -95.2836 North 213 245 2,900 1,761 Climbing Houston Center
Tue 02:28:07 PM 29.7931 -95.2814 North 217 250 4,900 2,534 Climbing Houston Center
Tue 02:29:09 PM 29.8614 -95.2817 360° North 239 275 7,800 2,903 Climbing Houston Center
Tue 02:30:11 PM 29.9336 -95.3008 347° North 263 303 10,900 2,952 Climbing Houston Center
Tue 02:31:13 PM 30.0103 -95.3186 349° North 273 314 13,900 2,468 Climbing Houston Center
Tue 02:32:15 PM 30.0794 -95.3603 332° Northwest 281 323 16,000 1,056 Climbing Houston Center
Tue 02:33:18 PM 30.1647 -95.4136 332° Northwest 333 383 16,100 1,248 Climbing Houston Center
Tue 02:34:20 PM 30.2722 -95.4836 331° Northwest 363 418 18,600 2,177 Climbing Houston Center
Tue 02:35:22 PM 30.3581 -95.5386 331° Northwest 358 412 20,600 1,935 Climbing Houston Center
Tue 02:36:24 PM 30.4422 -95.5936 331° Northwest 354 407 22,600 1,935 Climbing Houston Center
Tue 02:37:26 PM 30.5281 -95.6475 332° Northwest 352 405 24,600 1,920 Climbing Houston Center
Tue 02:38:29 PM 30.6186 -95.6958 335° Northwest 352 405 26,600 2,016 Climbing Houston Center
Tue 02:39:31 PM 30.7142 -95.7469 335° Northwest 352 405 28,800 2,032 Climbing Houston Center
Tue 02:40:33 PM 30.8008 -95.7944 335° Northwest 350 403 30,800 2,129 Climbing Houston Center
Tue 02:41:35 PM 30.9022 -95.8492 335° Northwest 340 391 33,200 1,742 Climbing Houston Center
Tue 02:42:37 PM 30.9836 -95.8928 335° Northwest 329 379 34,400 1,056 Climbing Houston Center
Tue 02:43:40 PM 31.0686 -95.9378 336° Northwest 333 383 35,400 960 Climbing Houston Center
Tue 02:44:42 PM 31.1567 -95.9814 337° Northwest 342 394 36,400 968 Climbing Houston Center
Tue 02:45:44 PM 31.2611 -96.0206 342° North 348 400 37,400 774 Climbing Houston Center
Tue 02:46:46 PM 31.3611 -96.0600 341° North 350 403 38,000 290 Climbing Houston Center
Tue 02:47:48 PM 31.4597 -96.0983 342° North 372 428 38,000  Level Houston Center
Tue 02:48:41 PM 31.5411 -96.1281 343° North 386 444 38,000  Level Fort Worth Center
Tue 02:49:44 PM 31.6497 -96.1711 341° North 408 470 38,000  Level Fort Worth Center
Tue 02:50:46 PM 31.7806 -96.2217 342° North 410 472 38,000  Level Fort Worth Center
Tue 02:51:48 PM 31.8972 -96.2675 342° North 414 476 38,000  Level Fort Worth Center
Tue 02:52:50 PM 32.0053 -96.3106 341° North 413 475 38,000  Level Fort Worth Center
Tue 02:53:52 PM 32.1125 -96.3525 342° North 411 473 38,000  Level Fort Worth Center
Tue 02:54:54 PM 32.2203 -96.3953 341° North 409 471 38,000  Level Fort Worth Center
Tue 02:55:56 PM 32.3281 -96.4361 342° North 409 471 38,000  Level Fort Worth Center
Tue 02:56:58 PM 32.4358 -96.4772 342° North 408 470 38,000  Level Fort Worth Center
Tue 02:58:00 PM 32.5633 -96.5258 342° North 406 467 38,000  Level Fort Worth Center
Tue 02:59:03 PM 32.6694 -96.5667 342° North 403 464 38,000 -144 Level Fort Worth Center
Tue 03:00:05 PM 32.7758 -96.6069 342° North 403 464 37,700 -484 Descending Fort Worth Center
Tue 03:01:07 PM 32.8811 -96.6475 342° North 403 464 37,000 -339 Descending Fort Worth Center
Tue 03:02:09 PM 32.9867 -96.6886 342° North 401 461 37,000  Level Fort Worth Center
Tue 03:03:11 PM 33.1142 -96.7358 343° North 403 464 37,000  Level Fort Worth Center
Tue 03:04:13 PM 33.2208 -96.7783 342° North 406 467 37,000  Level Fort Worth Center
Tue 03:05:15 PM 33.3278 -96.8217 341° North 407 468 37,000  Level Fort Worth Center
Tue 03:06:17 PM 33.4347 -96.8633 342° North 407 468 37,000 -336 Level Fort Worth Center
Tue 03:07:20 PM 33.5636 -96.9117 343° North 407 468 36,300 -1,296 Descending Fort Worth Center
Tue 03:08:22 PM 33.6694 -96.9522 342° North 403 464 34,300 -1,935 Descending Fort Worth Center
Tue 03:09:24 PM 33.7761 -96.9956 341° North 403 464 32,300 -1,935 Descending Fort Worth Center
Tue 03:10:26 PM 33.8864 -97.0417 341° North 415 478 30,300 -1,935 Descending Fort Worth Center
Tue 03:11:28 PM 33.9806 -97.1156 327° Northwest 414 476 28,300 -1,984 Descending Fort Worth Center
Tue 03:12:30 PM 34.0742 -97.1894 327° Northwest 408 470 26,200 -2,032 Descending Fort Worth Center
Tue 03:13:32 PM 34.1958 -97.2036 354° North 406 467 24,100 -1,935 Descending Fort Worth Center
Tue 03:14:34 PM 34.3031 -97.2211 352° North 392 451 22,200 -1,920 Descending Fort Worth Center
Tue 03:15:37 PM 34.4258 -97.2517 348° North 378 435 20,100 -2,016 Descending Fort Worth Center
Tue 03:16:39 PM 34.5269 -97.2597 356° North 365 420 18,000 -1,935 Descending Fort Worth Center
Tue 03:17:41 PM 34.6253 -97.2669 357° North 359 413 16,100 -1,948 Descending Fort Worth Center
Tue 03:17:56 PM 34.6558 -97.2647 North 347 399 15,500 -2,357 Descending Fort Worth Center
Tue 03:18:09 PM 34.6792 -97.2658 358° North 345 397 15,000 -1,660 Descending Fort Worth Center
Tue 03:18:43 PM 34.7203 -97.2725 352° North 347 399 14,200 -1,869 Descending Fort Worth Center
Tue 03:19:10 PM 34.7728 -97.2725 360° North 340 391 13,100 -1,839 Descending Fort Worth Center
Tue 03:19:45 PM 34.8147 -97.2792 353° North 345 397 12,300 -1,818 Descending Fort Worth Center
Tue 03:20:16 PM 34.8717 -97.2883 352° North 335 386 11,100 -2,226 Descending Fort Worth Center
Tue 03:20:47 PM 34.9181 -97.3128 337° Northwest 341 392 10,000 -984 Descending Fort Worth Center
Tue 03:21:17 PM 34.9356 -97.3489 301° West 283 326 10,100 -387 Climbing Fort Worth Center
Tue 03:21:49 PM 34.9531 -97.3853 300° West 241 277 9,600 -1,279 Descending Fort Worth Center
Tue 03:22:18 PM 34.9678 -97.4253 294° West 230 265 8,800 -1,548 Descending Fort Worth Center
Tue 03:22:51 PM 34.9906 -97.4656 305° West 259 298 8,000 -1,475 Descending Fort Worth Center
Tue 03:23:19 PM 35.0153 -97.4889 322° Northwest 253 291 7,300 -952 Descending Fort Worth Center
Tue 03:23:54 PM 35.0433 -97.5172 320° Northwest 245 282 7,000 -295 Descending Fort Worth Center
Tue 03:24:20 PM 35.0608 -97.5372 317° Northwest 211 243 7,000 -871 Level Fort Worth Center
Tue 03:24:56 PM 35.0908 -97.5672 321° Northwest 213 245 6,100 -982 Descending Fort Worth Center
Tue 03:25:15 PM 35.1044 -97.5861 311° West 231 266 6,100  Level Fort Worth Center
Tue 03:25:58 PM 35.1400 -97.6217 321° Northwest 236 272 6,100 -100 Level Fort Worth Center
Tue 03:26:15 PM 35.1550 -97.6392 316° Northwest 240 276 6,000  Descending Fort Worth Center
Tue 03:27:00 PM 35.2072 -97.6511 349° North 244 281 6,100  Climbing Fort Worth Center
Tue 03:27:16 PM 35.2197 -97.6536 351° North 240 276 6,000  Descending Fort Worth Center
Tue 03:28:02 PM 35.2694 -97.6481 North 224 258 6,100 98 Climbing Fort Worth Center
Tue 03:28:17 PM 35.2825 -97.6481 360° North 218 251 6,100 -968 Level Fort Worth Center
Tue 03:29:04 PM 35.3278 -97.6447 North 211 243 5,100 -1,475 Descending Fort Worth Center
Tue 03:29:18 PM 35.3369 -97.6464 352° North 193 222 4,600 -1,065 Descending Fort Worth Center
Tue 03:30:06 PM 35.3764 -97.6458 North 163 188 4,000 -590 Descending Fort Worth Center
Tue 03:30:19 PM 35.3833 -97.6464 356° North 151 174 4,000 -571 Level Fort Worth Center
Tue 03:31:09 PM 35.4175 -97.6456 North 146 168 3,400 -689 Descending Fort Worth Center
Tue 03:31:20 PM 35.4233 -97.6472 347° North 142 163 3,300 -677 Descending Fort Worth Center
Tue 03:32:11 PM 35.4544 -97.6456 North 137 158 2,700 -690 Descending Fort Worth Center
Tue 03:33:13 PM 35.4919 -97.6456 360° North 130 150 2,000 -629 Descending Fort Worth Center
Tue 03:34:15 PM 35.5239 -97.6456 360° North 127 146 1,400 -581 Descending Fort Worth Center
Tue 03:36:00 PM 35.5333 -97.6333 North  Level FlightAware Approximate

Login

Don't have an account? Register now (free) for customized features, flight alerts, and more!